sensor_id;sensor_type;location;lat;lon;timestamp;pressure;altitude;pressure_sealevel;temperature;humidity
43691;BME280;29293;52.190;21.226;2023-01-30T00:10:32;100096.17;;;-0.55;100.00
43691;BME280;29293;52.190;21.226;2023-01-30T00:25:43;100068.67;;;-0.51;100.00
43691;BME280;29293;52.190;21.226;2023-01-30T00:40:54;100038.30;;;-0.44;100.00
43691;BME280;29293;52.190;21.226;2023-01-30T00:56:07;100004.50;;;-0.39;100.00
43691;BME280;29293;52.190;21.226;2023-01-30T01:11:17;99957.55;;;-0.36;100.00
43691;BME280;29293;52.190;21.226;2023-01-30T01:26:32;99920.23;;;-0.36;100.00
43691;BME280;29293;52.190;21.226;2023-01-30T01:41:42;99875.71;;;-0.35;100.00
43691;BME280;29293;52.190;21.226;2023-01-30T01:56:52;99841.77;;;-0.33;100.00
43691;BME280;29293;52.190;21.226;2023-01-30T02:12:05;99806.43;;;-0.31;100.00
43691;BME280;29293;52.190;21.226;2023-01-30T02:27:35;99788.52;;;-0.28;100.00
43691;BME280;29293;52.190;21.226;2023-01-30T02:43:01;99764.67;;;-0.28;100.00
43691;BME280;29293;52.190;21.226;2023-01-30T02:58:10;99740.45;;;-0.27;100.00
43691;BME280;29293;52.190;21.226;2023-01-30T03:13:23;99714.92;;;-0.28;100.00
43691;BME280;29293;52.190;21.226;2023-01-30T03:28:35;99685.88;;;-0.29;100.00
43691;BME280;29293;52.190;21.226;2023-01-30T03:44:04;99629.63;;;-0.35;100.00
43691;BME280;29293;52.190;21.226;2023-01-30T03:59:26;99597.37;;;-0.49;100.00
43691;BME280;29293;52.190;21.226;2023-01-30T04:14:44;99578.55;;;-0.60;100.00
43691;BME280;29293;52.190;21.226;2023-01-30T04:29:52;99551.12;;;-0.71;100.00
43691;BME280;29293;52.190;21.226;2023-01-30T04:45:02;99512.99;;;-0.74;100.00
43691;BME280;29293;52.190;21.226;2023-01-30T05:00:15;99471.51;;;-0.79;100.00
43691;BME280;29293;52.190;21.226;2023-01-30T05:15:25;99445.75;;;-0.81;100.00
43691;BME280;29293;52.190;21.226;2023-01-30T05:30:35;99429.20;;;-0.79;100.00
43691;BME280;29293;52.190;21.226;2023-01-30T05:45:53;99391.56;;;-0.75;100.00
43691;BME280;29293;52.190;21.226;2023-01-30T06:01:05;99352.88;;;-0.75;100.00
43691;BME280;29293;52.190;21.226;2023-01-30T06:16:16;99334.80;;;-0.76;100.00
43691;BME280;29293;52.190;21.226;2023-01-30T06:31:25;99313.88;;;-0.76;100.00
43691;BME280;29293;52.190;21.226;2023-01-30T06:46:35;99274.94;;;-0.82;100.00
43691;BME280;29293;52.190;21.226;2023-01-30T07:01:42;99275.98;;;-0.80;100.00
43691;BME280;29293;52.190;21.226;2023-01-30T07:16:50;99242.63;;;-0.78;100.00
43691;BME280;29293;52.190;21.226;2023-01-30T07:31:57;99230.36;;;-0.74;100.00
43691;BME280;29293;52.190;21.226;2023-01-30T07:47:06;99221.05;;;-0.71;100.00
43691;BME280;29293;52.190;21.226;2023-01-30T08:02:14;99197.02;;;-0.72;100.00
43691;BME280;29293;52.190;21.226;2023-01-30T08:17:23;99166.13;;;-0.87;100.00
43691;BME280;29293;52.190;21.226;2023-01-30T08:32:32;99153.41;;;-1.00;100.00
43691;BME280;29293;52.190;21.226;2023-01-30T08:47:40;99142.58;;;-1.08;100.00
43691;BME280;29293;52.190;21.226;2023-01-30T09:02:53;99132.22;;;-1.18;100.00
43691;BME280;29293;52.190;21.226;2023-01-30T09:18:01;99106.11;;;-1.22;100.00
43691;BME280;29293;52.190;21.226;2023-01-30T09:33:09;99075.20;;;-1.17;100.00
43691;BME280;29293;52.190;21.226;2023-01-30T09:48:21;99051.01;;;-1.14;100.00
43691;BME280;29293;52.190;21.226;2023-01-30T10:03:37;99030.33;;;-1.09;100.00
43691;BME280;29293;52.190;21.226;2023-01-30T10:19:21;98998.48;;;-0.97;100.00
43691;BME280;29293;52.190;21.226;2023-01-30T10:34:50;98969.96;;;-0.94;100.00
43691;BME280;29293;52.190;21.226;2023-01-30T10:50:04;98950.05;;;-0.91;100.00
43691;BME280;29293;52.190;21.226;2023-01-30T11:05:21;98927.37;;;-0.84;100.00
43691;BME280;29293;52.190;21.226;2023-01-30T11:20:31;98913.14;;;-0.76;100.00
43691;BME280;29293;52.190;21.226;2023-01-30T11:35:55;98888.09;;;-0.76;100.00
43691;BME280;29293;52.190;21.226;2023-01-30T11:51:07;98866.29;;;-0.63;100.00
43691;BME280;29293;52.190;21.226;2023-01-30T12:06:27;98855.95;;;-0.38;100.00
43691;BME280;29293;52.190;21.226;2023-01-30T12:21:44;98844.11;;;-0.31;100.00
43691;BME280;29293;52.190;21.226;2023-01-30T12:37:03;98834.21;;;-0.32;100.00
43691;BME280;29293;52.190;21.226;2023-01-30T13:08:09;98826.19;;;-0.29;100.00
43691;BME280;29293;52.190;21.226;2023-01-30T13:23:26;98816.98;;;-0.22;100.00
43691;BME280;29293;52.190;21.226;2023-01-30T13:38:43;98810.41;;;-0.18;100.00
43691;BME280;29293;52.190;21.226;2023-01-30T13:54:00;98799.40;;;-0.13;100.00
43691;BME280;29293;52.190;21.226;2023-01-30T14:09:25;98799.56;;;-0.11;100.00
43691;BME280;29293;52.190;21.226;2023-01-30T14:24:38;98811.59;;;-0.05;100.00
43691;BME280;29293;52.190;21.226;2023-01-30T14:39:50;98824.98;;;0.00;100.00
43691;BME280;29293;52.190;21.226;2023-01-30T14:55:00;98837.39;;;0.06;100.00
43691;BME280;29293;52.190;21.226;2023-01-30T15:10:18;98839.70;;;0.12;100.00
43691;BME280;29293;52.190;21.226;2023-01-30T15:25:37;98835.48;;;0.18;100.00
43691;BME280;29293;52.190;21.226;2023-01-30T15:40:49;98840.15;;;0.18;100.00
43691;BME280;29293;52.190;21.226;2023-01-30T15:56:01;98864.05;;;0.19;100.00
43691;BME280;29293;52.190;21.226;2023-01-30T16:11:11;98873.11;;;0.21;100.00
43691;BME280;29293;52.190;21.226;2023-01-30T16:26:20;98882.86;;;0.20;100.00
43691;BME280;29293;52.190;21.226;2023-01-30T16:41:32;98874.67;;;0.19;100.00
43691;BME280;29293;52.190;21.226;2023-01-30T16:56:47;98876.23;;;0.26;100.00
43691;BME280;29293;52.190;21.226;2023-01-30T17:11:57;98887.82;;;0.31;100.00
43691;BME280;29293;52.190;21.226;2023-01-30T17:27:07;98879.33;;;0.38;100.00
43691;BME280;29293;52.190;21.226;2023-01-30T17:42:17;98889.34;;;0.41;100.00
43691;BME280;29293;52.190;21.226;2023-01-30T17:57:27;98900.45;;;0.44;100.00
43691;BME280;29293;52.190;21.226;2023-01-30T18:12:35;98896.49;;;0.54;100.00
43691;BME280;29293;52.190;21.226;2023-01-30T18:27:46;98906.09;;;0.63;100.00
43691;BME280;29293;52.190;21.226;2023-01-30T18:42:54;98919.61;;;0.75;100.00
43691;BME280;29293;52.190;21.226;2023-01-30T18:58:03;98912.98;;;0.86;100.00
43691;BME280;29293;52.190;21.226;2023-01-30T19:13:12;98906.25;;;0.93;100.00
43691;BME280;29293;52.190;21.226;2023-01-30T19:28:40;98908.66;;;0.90;100.00
43691;BME280;29293;52.190;21.226;2023-01-30T19:43:53;98908.93;;;0.91;100.00
43691;BME280;29293;52.190;21.226;2023-01-30T19:59:03;98911.81;;;0.90;100.00
43691;BME280;29293;52.190;21.226;2023-01-30T20:14:13;98915.66;;;0.98;100.00
43691;BME280;29293;52.190;21.226;2023-01-30T20:29:23;98923.59;;;0.99;100.00
43691;BME280;29293;52.190;21.226;2023-01-30T20:44:32;98923.92;;;1.05;100.00
43691;BME280;29293;52.190;21.226;2023-01-30T20:59:41;98966.94;;;1.08;100.00
43691;BME280;29293;52.190;21.226;2023-01-30T21:14:51;98982.54;;;1.08;100.00
43691;BME280;29293;52.190;21.226;2023-01-30T21:29:59;98999.55;;;1.09;100.00
43691;BME280;29293;52.190;21.226;2023-01-30T21:45:10;99009.87;;;1.09;100.00
43691;BME280;29293;52.190;21.226;2023-01-30T22:00:21;99017.27;;;1.10;100.00
43691;BME280;29293;52.190;21.226;2023-01-30T22:15:28;99027.93;;;1.05;100.00
43691;BME280;29293;52.190;21.226;2023-01-30T22:30:36;99037.89;;;1.02;100.00
43691;BME280;29293;52.190;21.226;2023-01-30T22:45:44;99056.83;;;0.97;100.00
43691;BME280;29293;52.190;21.226;2023-01-30T23:00:50;99073.66;;;1.00;100.00
43691;BME280;29293;52.190;21.226;2023-01-30T23:16:02;99075.59;;;1.06;100.00
43691;BME280;29293;52.190;21.226;2023-01-30T23:31:12;99080.06;;;1.15;100.00
43691;BME280;29293;52.190;21.226;2023-01-30T23:46:23;99082.52;;;1.23;100.00
